Skip to content
You are here: Gozo Weather
Gozo Weather Station for the very latest live weather conditions from Gozo and Malta
 
 TIME   TEMPERATURE   WINDSPEED   DIRECTION   HUMIDITY   BAROMETER   RAINFALL 
11:30 24.5°C (76.1°F) 24.1 kmh (15.0 mph) WNW 61% 1009.0hPa (29.80 inHg) 0.0mm (0.00 in.)
10:30 24.0°C (75.2 °F) 25.9 kmh (16.1 mph) N 58% 1010.0hPa (29.83 inHg) 0.0mm (0.00 in.)
9:30 23.7°C (74.7 °F) 20.4 kmh (12.7 mph) N 61% 1010.0hPa (29.83 inHg) 0.0mm (0.00 in.)
8:30 22.4°C (72.3 °F) 13.0 kmh (8.1 mph) SW 69% 1010.0hPa (29.83 inHg) 0.0mm (0.00 in.)
7:30 22.1°C (71.8 °F) 18.5 kmh (11.5 mph) NNW 72% 1010.0hPa (29.83 inHg) 0.0mm (0.00 in.)
6:30 22.1°C (71.8 °F) 13.0 kmh (8.1 mph) WNW 73% 1010.0hPa (29.83 inHg) 0.0mm (0.00 in.)
5:30 22.2°C (72.0 °F) 11.1 kmh (6.9 mph) NW 73% 1011.0hPa (29.85 inHg) 0.0mm (0.00 in.)
4:30 22.1°C (71.8 °F) 13.0 kmh (8.1 mph) NNW 73% 1011.0hPa (29.85 inHg) 0.0mm (0.00 in.)
3:30 22.1°C (71.8 °F) 1.9 kmh (1.2 mph) WSW 73% 1012.0hPa (29.88 inHg) 0.0mm (0.00 in.)
2:30 22.0°C (71.6 °F) 11.1 kmh (6.9 mph) NW 74% 1013.0hPa (29.91 inHg) 0.0mm (0.00 in.)
1:30 22.0°C (71.6 °F) 11.1 kmh (6.9 mph) NNW 74% 1013.0hPa (29.91 inHg) 0.0mm (0.00 in.)
12:30 22.0°C (71.6 °F) 14.8 kmh (9.2 mph) SSW 74% 1014.0hPa (29.94 inHg) 0.0mm (0.00 in.)
11:30 21.9°C (71.4 °F) 13.0 kmh (8.1 mph) N 74% 1014.0hPa (29.94 inHg) 0.0mm (0.00 in.)
10:30 22.0°C (71.6 °F) 0.0 kmh (0.0 mph) N 74% 1014.0hPa (29.94 inHg) 0.0mm (0.00 in.)
9:30 21.5°C (70.7 °F) 11.1 kmh (6.9 mph) NW 71% 1014.0hPa (29.94 inHg) 0.0mm (0.00 in.)
8:30 21.6°C (70.9 °F) 9.3 kmh (5.8 mph) NNW 69% 1014.0hPa (29.94 inHg) 0.0mm (0.00 in.)
7:30 21.8°C (71.2 °F) 1.9 kmh (1.2 mph) NNW 66% 1014.0hPa (29.94 inHg) 0.0mm (0.00 in.)
6:30 22.2°C (72.0 °F) 0.0 kmh (0.0 mph) WNW 66% 1014.0hPa (29.94 inHg) 0.0mm (0.00 in.)
5:30 23.6°C (74.5 °F) 13.0 kmh (8.1 mph) NNW 65% 1014.0hPa (29.94 inHg) 0.0mm (0.00 in.)
4:30 23.8°C (74.8 °F) 1.9 kmh (1.2 mph) W 66% 1015.0hPa (29.97 inHg) 0.0mm (0.00 in.)
3:30 23.9°C (75.0 °F) 9.3 kmh (5.8 mph) SE 66% 1015.0hPa (29.97 inHg) 0.0mm (0.00 in.)
2:30 23.8°C (74.8 °F) 24.1 kmh (15.0 mph) NNE 67% 1015.0hPa (29.97 inHg) 0.0mm (0.00 in.)
1:30 23.7°C (74.7 °F) 22.2 kmh (13.8 mph) N 67% 1016.0hPa (30.00 inHg) 0.0mm (0.00 in.)
12:28 23.4°C (74.1 °F) 14.8 kmh (9.2 mph) S 68% 1017.0hPa (30.03 inHg) 0.0mm (0.00 in.)

You need the latest version of Flash Player to view some of our content.


Why not download and install the latest version now?
It will only take you a moment and will ensure that you can view all the latest flash designed websites.

Translate this page

Animated Satellite

Click per aprire http://www.gozo.ws/Animation.php
copyright 2014 EUMETSAT

European Lightning Activity


Please click image for full size

Sponsored Links